sensor_id;sensor_type;location;lat;lon;timestamp;temperature;humidity
36416;DHT22;22447;44.530;18.620;2022-12-07T00:01:11;8.00;99.90
36416;DHT22;22447;44.530;18.620;2022-12-07T00:03:38;7.90;99.90
36416;DHT22;22447;44.530;18.620;2022-12-07T00:06:06;8.00;99.90
36416;DHT22;22447;44.530;18.620;2022-12-07T00:08:33;8.00;99.90
36416;DHT22;22447;44.530;18.620;2022-12-07T00:11:11;7.90;99.90
36416;DHT22;22447;44.530;18.620;2022-12-07T00:13:38;7.90;99.90
36416;DHT22;22447;44.530;18.620;2022-12-07T00:16:11;7.90;99.90
36416;DHT22;22447;44.530;18.620;2022-12-07T00:18:37;7.90;99.90
36416;DHT22;22447;44.530;18.620;2022-12-07T00:21:10;7.90;99.90
36416;DHT22;22447;44.530;18.620;2022-12-07T00:23:36;7.90;99.90
36416;DHT22;22447;44.530;18.620;2022-12-07T00:28:35;8.00;99.90
36416;DHT22;22447;44.530;18.620;2022-12-07T00:31:04;7.90;99.90
36416;DHT22;22447;44.530;18.620;2022-12-07T00:33:31;8.00;99.90
36416;DHT22;22447;44.530;18.620;2022-12-07T00:35:58;7.90;99.90
36416;DHT22;22447;44.530;18.620;2022-12-07T00:38:26;7.90;99.90
36416;DHT22;22447;44.530;18.620;2022-12-07T00:41:22;7.90;99.90
36416;DHT22;22447;44.530;18.620;2022-12-07T00:43:49;7.80;99.90
36416;DHT22;22447;44.530;18.620;2022-12-07T00:46:16;7.80;99.90
36416;DHT22;22447;44.530;18.620;2022-12-07T00:48:42;7.80;99.90
36416;DHT22;22447;44.530;18.620;2022-12-07T00:51:10;7.90;99.90
36416;DHT22;22447;44.530;18.620;2022-12-07T00:53:37;7.80;99.90
36416;DHT22;22447;44.530;18.620;2022-12-07T00:56:07;8.00;99.90
36416;DHT22;22447;44.530;18.620;2022-12-07T00:58:33;8.00;99.90
36416;DHT22;22447;44.530;18.620;2022-12-07T01:01:00;8.00;99.90
36416;DHT22;22447;44.530;18.620;2022-12-07T01:03:28;7.90;99.90
36416;DHT22;22447;44.530;18.620;2022-12-07T01:05:55;7.90;99.90
36416;DHT22;22447;44.530;18.620;2022-12-07T01:08:22;7.80;99.90
36416;DHT22;22447;44.530;18.620;2022-12-07T01:10:49;7.80;99.90
36416;DHT22;22447;44.530;18.620;2022-12-07T01:13:15;7.80;99.90
36416;DHT22;22447;44.530;18.620;2022-12-07T01:15:43;7.80;99.90
36416;DHT22;22447;44.530;18.620;2022-12-07T01:18:10;7.80;99.90
36416;DHT22;22447;44.530;18.620;2022-12-07T01:20:36;7.80;99.90
36416;DHT22;22447;44.530;18.620;2022-12-07T01:23:02;7.90;99.90
36416;DHT22;22447;44.530;18.620;2022-12-07T01:25:29;7.70;99.90
36416;DHT22;22447;44.530;18.620;2022-12-07T01:27:55;7.70;99.90
36416;DHT22;22447;44.530;18.620;2022-12-07T01:30:20;7.60;99.90
36416;DHT22;22447;44.530;18.620;2022-12-07T01:32:46;7.60;99.90
36416;DHT22;22447;44.530;18.620;2022-12-07T01:35:12;7.70;99.90
36416;DHT22;22447;44.530;18.620;2022-12-07T01:37:39;7.70;99.90
36416;DHT22;22447;44.530;18.620;2022-12-07T01:40:07;7.70;99.90
36416;DHT22;22447;44.530;18.620;2022-12-07T01:42:34;7.80;99.90
36416;DHT22;22447;44.530;18.620;2022-12-07T01:45:39;7.70;99.90
36416;DHT22;22447;44.530;18.620;2022-12-07T01:48:06;7.80;99.90
36416;DHT22;22447;44.530;18.620;2022-12-07T01:50:34;7.90;99.90
36416;DHT22;22447;44.530;18.620;2022-12-07T01:53:03;7.90;99.90
36416;DHT22;22447;44.530;18.620;2022-12-07T01:55:30;7.80;99.90
36416;DHT22;22447;44.530;18.620;2022-12-07T01:57:56;7.70;99.90
36416;DHT22;22447;44.530;18.620;2022-12-07T02:00:23;7.70;99.90
36416;DHT22;22447;44.530;18.620;2022-12-07T02:02:57;7.60;99.90
36416;DHT22;22447;44.530;18.620;2022-12-07T02:05:26;7.70;99.90
36416;DHT22;22447;44.530;18.620;2022-12-07T02:07:55;7.90;99.90
36416;DHT22;22447;44.530;18.620;2022-12-07T02:10:25;7.80;99.90
36416;DHT22;22447;44.530;18.620;2022-12-07T02:13:13;7.70;99.90
36416;DHT22;22447;44.530;18.620;2022-12-07T02:18:35;7.70;99.90
36416;DHT22;22447;44.530;18.620;2022-12-07T02:33:13;7.60;99.90
36416;DHT22;22447;44.530;18.620;2022-12-07T02:35:30;7.70;99.90
36416;DHT22;22447;44.530;18.620;2022-12-07T02:38:00;7.70;99.90
36416;DHT22;22447;44.530;18.620;2022-12-07T02:44:27;7.60;99.90
36416;DHT22;22447;44.530;18.620;2022-12-07T02:46:28;7.60;99.90
36416;DHT22;22447;44.530;18.620;2022-12-07T02:48:56;7.60;99.90
36416;DHT22;22447;44.530;18.620;2022-12-07T02:51:25;7.60;99.90
36416;DHT22;22447;44.530;18.620;2022-12-07T02:53:51;7.60;99.90
36416;DHT22;22447;44.530;18.620;2022-12-07T02:56:39;7.70;99.90
36416;DHT22;22447;44.530;18.620;2022-12-07T03:04:45;7.80;99.90
36416;DHT22;22447;44.530;18.620;2022-12-07T03:10:22;7.70;99.90
36416;DHT22;22447;44.530;18.620;2022-12-07T03:13:05;7.70;99.90
36416;DHT22;22447;44.530;18.620;2022-12-07T03:18:07;7.70;99.90
36416;DHT22;22447;44.530;18.620;2022-12-07T03:20:35;7.70;99.90
36416;DHT22;22447;44.530;18.620;2022-12-07T03:23:05;7.60;99.90
36416;DHT22;22447;44.530;18.620;2022-12-07T03:25:39;7.50;99.90
36416;DHT22;22447;44.530;18.620;2022-12-07T03:28:07;7.70;99.90
36416;DHT22;22447;44.530;18.620;2022-12-07T03:31:00;7.70;99.90
36416;DHT22;22447;44.530;18.620;2022-12-07T03:33:52;7.70;99.90
36416;DHT22;22447;44.530;18.620;2022-12-07T03:39:07;7.70;99.90
36416;DHT22;22447;44.530;18.620;2022-12-07T03:41:37;7.80;99.90
36416;DHT22;22447;44.530;18.620;2022-12-07T03:44:05;7.80;99.90
36416;DHT22;22447;44.530;18.620;2022-12-07T03:46:41;7.70;99.90
36416;DHT22;22447;44.530;18.620;2022-12-07T03:51:59;7.60;99.90
36416;DHT22;22447;44.530;18.620;2022-12-07T03:57:12;7.50;99.90
36416;DHT22;22447;44.530;18.620;2022-12-07T03:59:39;7.50;99.90
36416;DHT22;22447;44.530;18.620;2022-12-07T04:02:07;7.50;99.90
36416;DHT22;22447;44.530;18.620;2022-12-07T04:04:33;7.50;99.90
36416;DHT22;22447;44.530;18.620;2022-12-07T04:07:00;7.40;99.90
36416;DHT22;22447;44.530;18.620;2022-12-07T04:09:26;7.50;99.90
36416;DHT22;22447;44.530;18.620;2022-12-07T04:11:52;7.60;99.90
36416;DHT22;22447;44.530;18.620;2022-12-07T04:14:18;7.50;99.90
36416;DHT22;22447;44.530;18.620;2022-12-07T04:16:52;7.50;99.90
36416;DHT22;22447;44.530;18.620;2022-12-07T04:19:22;7.60;99.90
36416;DHT22;22447;44.530;18.620;2022-12-07T04:21:48;7.60;99.90
36416;DHT22;22447;44.530;18.620;2022-12-07T04:24:15;7.50;99.90
36416;DHT22;22447;44.530;18.620;2022-12-07T04:26:42;7.40;99.90
36416;DHT22;22447;44.530;18.620;2022-12-07T04:29:09;7.40;99.90
36416;DHT22;22447;44.530;18.620;2022-12-07T04:31:35;7.30;99.90
36416;DHT22;22447;44.530;18.620;2022-12-07T04:34:02;7.40;99.90
36416;DHT22;22447;44.530;18.620;2022-12-07T04:36:28;7.30;99.90
36416;DHT22;22447;44.530;18.620;2022-12-07T04:38:55;7.30;99.90
36416;DHT22;22447;44.530;18.620;2022-12-07T04:41:22;7.20;99.90
36416;DHT22;22447;44.530;18.620;2022-12-07T04:43:55;7.20;99.90
36416;DHT22;22447;44.530;18.620;2022-12-07T04:46:23;7.30;99.90
36416;DHT22;22447;44.530;18.620;2022-12-07T04:48:50;7.20;99.90
36416;DHT22;22447;44.530;18.620;2022-12-07T04:51:19;7.30;99.90
36416;DHT22;22447;44.530;18.620;2022-12-07T04:53:46;7.30;99.90
36416;DHT22;22447;44.530;18.620;2022-12-07T04:56:12;7.30;99.90
36416;DHT22;22447;44.530;18.620;2022-12-07T04:58:37;7.40;99.90
36416;DHT22;22447;44.530;18.620;2022-12-07T05:01:03;7.40;99.90
36416;DHT22;22447;44.530;18.620;2022-12-07T05:03:29;7.30;99.90
36416;DHT22;22447;44.530;18.620;2022-12-07T05:05:55;7.20;99.90
36416;DHT22;22447;44.530;18.620;2022-12-07T05:08:21;7.20;99.90
36416;DHT22;22447;44.530;18.620;2022-12-07T05:10:49;7.20;99.90
36416;DHT22;22447;44.530;18.620;2022-12-07T05:13:15;7.30;99.90
36416;DHT22;22447;44.530;18.620;2022-12-07T05:15:41;7.30;99.90
36416;DHT22;22447;44.530;18.620;2022-12-07T05:18:10;7.30;99.90
36416;DHT22;22447;44.530;18.620;2022-12-07T05:20:39;7.30;99.90
36416;DHT22;22447;44.530;18.620;2022-12-07T05:23:05;7.30;99.90
36416;DHT22;22447;44.530;18.620;2022-12-07T05:25:31;7.30;99.90
36416;DHT22;22447;44.530;18.620;2022-12-07T05:27:57;7.40;99.90
36416;DHT22;22447;44.530;18.620;2022-12-07T05:30:24;7.40;99.90
36416;DHT22;22447;44.530;18.620;2022-12-07T05:32:50;7.30;99.90
36416;DHT22;22447;44.530;18.620;2022-12-07T05:35:17;7.30;99.90
36416;DHT22;22447;44.530;18.620;2022-12-07T05:37:44;7.30;99.90
36416;DHT22;22447;44.530;18.620;2022-12-07T05:40:11;7.30;99.90
36416;DHT22;22447;44.530;18.620;2022-12-07T05:42:37;7.20;99.90
36416;DHT22;22447;44.530;18.620;2022-12-07T05:45:04;7.30;99.90
36416;DHT22;22447;44.530;18.620;2022-12-07T05:47:30;7.20;99.90
36416;DHT22;22447;44.530;18.620;2022-12-07T05:49:56;7.20;99.90
36416;DHT22;22447;44.530;18.620;2022-12-07T05:52:22;7.10;99.90
36416;DHT22;22447;44.530;18.620;2022-12-07T05:54:48;7.10;99.90
36416;DHT22;22447;44.530;18.620;2022-12-07T05:57:14;7.10;99.90
36416;DHT22;22447;44.530;18.620;2022-12-07T05:59:40;7.20;99.90
36416;DHT22;22447;44.530;18.620;2022-12-07T06:02:09;7.20;99.90
36416;DHT22;22447;44.530;18.620;2022-12-07T06:04:44;7.30;99.90
36416;DHT22;22447;44.530;18.620;2022-12-07T06:07:12;7.20;99.90
36416;DHT22;22447;44.530;18.620;2022-12-07T06:09:38;7.10;99.90
36416;DHT22;22447;44.530;18.620;2022-12-07T06:12:05;7.20;99.90
36416;DHT22;22447;44.530;18.620;2022-12-07T06:14:49;7.20;99.90
36416;DHT22;22447;44.530;18.620;2022-12-07T06:17:15;7.20;99.90
36416;DHT22;22447;44.530;18.620;2022-12-07T06:19:42;7.20;99.90
36416;DHT22;22447;44.530;18.620;2022-12-07T06:22:08;7.20;99.90
36416;DHT22;22447;44.530;18.620;2022-12-07T06:24:36;7.10;99.90
36416;DHT22;22447;44.530;18.620;2022-12-07T06:27:02;7.20;99.90
36416;DHT22;22447;44.530;18.620;2022-12-07T06:29:28;7.30;99.90
36416;DHT22;22447;44.530;18.620;2022-12-07T06:31:53;7.30;99.90
36416;DHT22;22447;44.530;18.620;2022-12-07T06:34:21;7.30;99.90
36416;DHT22;22447;44.530;18.620;2022-12-07T06:36:49;7.30;99.90
36416;DHT22;22447;44.530;18.620;2022-12-07T06:39:20;7.20;99.90
36416;DHT22;22447;44.530;18.620;2022-12-07T06:41:50;7.30;99.90
36416;DHT22;22447;44.530;18.620;2022-12-07T06:44:18;7.20;99.90
36416;DHT22;22447;44.530;18.620;2022-12-07T06:46:44;7.20;99.90
36416;DHT22;22447;44.530;18.620;2022-12-07T06:49:10;7.20;99.90
36416;DHT22;22447;44.530;18.620;2022-12-07T06:51:36;7.20;99.90
36416;DHT22;22447;44.530;18.620;2022-12-07T06:54:09;7.20;99.90
36416;DHT22;22447;44.530;18.620;2022-12-07T06:56:36;7.10;99.90
36416;DHT22;22447;44.530;18.620;2022-12-07T06:59:02;7.10;99.90
36416;DHT22;22447;44.530;18.620;2022-12-07T07:01:29;7.10;99.90
36416;DHT22;22447;44.530;18.620;2022-12-07T07:03:55;7.10;99.90
36416;DHT22;22447;44.530;18.620;2022-12-07T07:06:21;7.20;99.90
36416;DHT22;22447;44.530;18.620;2022-12-07T07:08:47;7.20;99.90
36416;DHT22;22447;44.530;18.620;2022-12-07T07:11:13;7.10;99.90
36416;DHT22;22447;44.530;18.620;2022-12-07T07:13:39;7.10;99.90
36416;DHT22;22447;44.530;18.620;2022-12-07T07:16:06;7.10;99.90
36416;DHT22;22447;44.530;18.620;2022-12-07T07:18:32;7.20;99.90
36416;DHT22;22447;44.530;18.620;2022-12-07T07:20:58;7.10;99.90
36416;DHT22;22447;44.530;18.620;2022-12-07T07:23:25;7.20;99.90
36416;DHT22;22447;44.530;18.620;2022-12-07T07:25:51;7.10;99.90
36416;DHT22;22447;44.530;18.620;2022-12-07T07:28:17;7.10;99.90
36416;DHT22;22447;44.530;18.620;2022-12-07T07:30:43;7.20;99.90
36416;DHT22;22447;44.530;18.620;2022-12-07T07:33:09;7.30;99.90
36416;DHT22;22447;44.530;18.620;2022-12-07T07:35:36;7.40;99.90
36416;DHT22;22447;44.530;18.620;2022-12-07T07:38:02;7.40;99.90
36416;DHT22;22447;44.530;18.620;2022-12-07T07:40:28;7.40;99.90
36416;DHT22;22447;44.530;18.620;2022-12-07T07:42:55;7.30;99.90
36416;DHT22;22447;44.530;18.620;2022-12-07T07:45:23;7.30;99.90
36416;DHT22;22447;44.530;18.620;2022-12-07T07:47:50;7.40;99.90
36416;DHT22;22447;44.530;18.620;2022-12-07T07:50:17;7.20;99.90
36416;DHT22;22447;44.530;18.620;2022-12-07T07:52:44;7.20;99.90
36416;DHT22;22447;44.530;18.620;2022-12-07T07:55:10;7.30;99.90
36416;DHT22;22447;44.530;18.620;2022-12-07T07:57:37;7.40;99.90
36416;DHT22;22447;44.530;18.620;2022-12-07T08:00:06;7.40;99.90
36416;DHT22;22447;44.530;18.620;2022-12-07T08:02:38;7.30;99.90
36416;DHT22;22447;44.530;18.620;2022-12-07T08:05:04;7.30;99.90
36416;DHT22;22447;44.530;18.620;2022-12-07T08:07:30;7.40;99.90
36416;DHT22;22447;44.530;18.620;2022-12-07T08:09:56;7.30;99.90
36416;DHT22;22447;44.530;18.620;2022-12-07T08:12:22;7.20;99.90
36416;DHT22;22447;44.530;18.620;2022-12-07T08:14:48;7.20;99.90
36416;DHT22;22447;44.530;18.620;2022-12-07T08:17:14;7.20;99.90
36416;DHT22;22447;44.530;18.620;2022-12-07T08:19:40;7.20;99.90
36416;DHT22;22447;44.530;18.620;2022-12-07T08:22:06;7.30;99.90
36416;DHT22;22447;44.530;18.620;2022-12-07T08:24:35;7.40;99.90
36416;DHT22;22447;44.530;18.620;2022-12-07T08:27:02;7.40;99.90
36416;DHT22;22447;44.530;18.620;2022-12-07T08:29:28;7.40;99.90
36416;DHT22;22447;44.530;18.620;2022-12-07T08:31:54;7.40;99.90
36416;DHT22;22447;44.530;18.620;2022-12-07T08:34:20;7.40;99.90
36416;DHT22;22447;44.530;18.620;2022-12-07T08:36:46;7.50;99.90
36416;DHT22;22447;44.530;18.620;2022-12-07T08:39:11;7.50;99.90
36416;DHT22;22447;44.530;18.620;2022-12-07T08:41:37;7.60;99.90
36416;DHT22;22447;44.530;18.620;2022-12-07T08:44:03;7.70;99.90
36416;DHT22;22447;44.530;18.620;2022-12-07T08:46:37;7.80;99.90
36416;DHT22;22447;44.530;18.620;2022-12-07T08:49:27;7.80;99.90
36416;DHT22;22447;44.530;18.620;2022-12-07T08:51:56;7.80;99.90
36416;DHT22;22447;44.530;18.620;2022-12-07T08:54:22;7.80;99.90
36416;DHT22;22447;44.530;18.620;2022-12-07T08:56:49;7.80;99.90
36416;DHT22;22447;44.530;18.620;2022-12-07T08:59:17;7.90;99.90
36416;DHT22;22447;44.530;18.620;2022-12-07T09:01:44;8.00;99.90
36416;DHT22;22447;44.530;18.620;2022-12-07T09:04:10;8.00;99.90
36416;DHT22;22447;44.530;18.620;2022-12-07T09:06:37;8.00;99.90
36416;DHT22;22447;44.530;18.620;2022-12-07T09:09:03;8.00;99.90
36416;DHT22;22447;44.530;18.620;2022-12-07T09:11:30;8.00;99.90
36416;DHT22;22447;44.530;18.620;2022-12-07T09:13:56;8.00;99.90
36416;DHT22;22447;44.530;18.620;2022-12-07T09:16:22;7.90;99.90
36416;DHT22;22447;44.530;18.620;2022-12-07T09:18:48;8.00;99.90
36416;DHT22;22447;44.530;18.620;2022-12-07T09:21:14;8.10;99.90
36416;DHT22;22447;44.530;18.620;2022-12-07T09:23:41;8.20;99.90
36416;DHT22;22447;44.530;18.620;2022-12-07T09:26:08;8.20;99.90
36416;DHT22;22447;44.530;18.620;2022-12-07T09:28:34;8.40;99.90
36416;DHT22;22447;44.530;18.620;2022-12-07T09:31:01;8.40;99.90
36416;DHT22;22447;44.530;18.620;2022-12-07T09:33:27;8.60;99.90
36416;DHT22;22447;44.530;18.620;2022-12-07T09:35:53;8.60;99.90
36416;DHT22;22447;44.530;18.620;2022-12-07T09:38:20;8.50;99.90
36416;DHT22;22447;44.530;18.620;2022-12-07T09:40:47;8.60;99.90
36416;DHT22;22447;44.530;18.620;2022-12-07T09:43:24;8.60;99.90
36416;DHT22;22447;44.530;18.620;2022-12-07T09:45:53;8.80;99.90
36416;DHT22;22447;44.530;18.620;2022-12-07T09:48:24;8.90;99.90
36416;DHT22;22447;44.530;18.620;2022-12-07T09:50:52;9.00;99.90
36416;DHT22;22447;44.530;18.620;2022-12-07T09:53:27;9.00;99.90
36416;DHT22;22447;44.530;18.620;2022-12-07T09:55:54;9.00;99.90
36416;DHT22;22447;44.530;18.620;2022-12-07T09:58:25;9.10;99.90
36416;DHT22;22447;44.530;18.620;2022-12-07T10:03:34;9.30;99.90
36416;DHT22;22447;44.530;18.620;2022-12-07T10:06:01;9.20;99.90
36416;DHT22;22447;44.530;18.620;2022-12-07T10:08:28;9.30;99.90
36416;DHT22;22447;44.530;18.620;2022-12-07T10:10:57;9.20;99.90
36416;DHT22;22447;44.530;18.620;2022-12-07T10:13:42;9.20;99.90
36416;DHT22;22447;44.530;18.620;2022-12-07T10:18:51;9.10;99.90
36416;DHT22;22447;44.530;18.620;2022-12-07T10:21:19;9.10;99.90
36416;DHT22;22447;44.530;18.620;2022-12-07T10:24:05;9.20;99.90
36416;DHT22;22447;44.530;18.620;2022-12-07T10:29:35;9.10;99.90
36416;DHT22;22447;44.530;18.620;2022-12-07T10:34:40;9.20;99.90
36416;DHT22;22447;44.530;18.620;2022-12-07T10:37:27;9.10;99.90
36416;DHT22;22447;44.530;18.620;2022-12-07T10:39:55;9.00;99.90
36416;DHT22;22447;44.530;18.620;2022-12-07T10:42:31;8.90;99.90
36416;DHT22;22447;44.530;18.620;2022-12-07T10:45:29;9.00;99.90
36416;DHT22;22447;44.530;18.620;2022-12-07T10:48:12;8.90;99.90
36416;DHT22;22447;44.530;18.620;2022-12-07T10:50:54;9.00;99.90
36416;DHT22;22447;44.530;18.620;2022-12-07T10:59:16;8.90;99.90
36416;DHT22;22447;44.530;18.620;2022-12-07T11:10:18;9.00;99.90
36416;DHT22;22447;44.530;18.620;2022-12-07T11:24:19;8.90;99.90
36416;DHT22;22447;44.530;18.620;2022-12-07T11:35:41;9.00;99.90
36416;DHT22;22447;44.530;18.620;2022-12-07T11:38:15;9.10;99.90
36416;DHT22;22447;44.530;18.620;2022-12-07T11:40:55;9.10;99.90
36416;DHT22;22447;44.530;18.620;2022-12-07T11:43:26;9.00;99.90
36416;DHT22;22447;44.530;18.620;2022-12-07T11:46:08;9.10;99.90
36416;DHT22;22447;44.530;18.620;2022-12-07T11:51:57;9.20;99.90
36416;DHT22;22447;44.530;18.620;2022-12-07T11:54:34;9.10;99.90
36416;DHT22;22447;44.530;18.620;2022-12-07T11:57:13;9.30;99.90
36416;DHT22;22447;44.530;18.620;2022-12-07T11:59:47;9.20;99.90
36416;DHT22;22447;44.530;18.620;2022-12-07T12:05:22;9.40;99.90
36416;DHT22;22447;44.530;18.620;2022-12-07T12:08:11;9.50;99.90
36416;DHT22;22447;44.530;18.620;2022-12-07T12:16:34;9.40;99.90
36416;DHT22;22447;44.530;18.620;2022-12-07T12:22:18;9.30;99.90
36416;DHT22;22447;44.530;18.620;2022-12-07T12:24:49;9.30;99.90
36416;DHT22;22447;44.530;18.620;2022-12-07T12:27:29;9.40;99.90
36416;DHT22;22447;44.530;18.620;2022-12-07T12:29:59;9.50;99.90
36416;DHT22;22447;44.530;18.620;2022-12-07T12:32:41;9.50;99.90
36416;DHT22;22447;44.530;18.620;2022-12-07T12:35:31;9.50;99.90
36416;DHT22;22447;44.530;18.620;2022-12-07T12:46:58;9.30;99.90
36416;DHT22;22447;44.530;18.620;2022-12-07T12:51:57;9.40;99.90
36416;DHT22;22447;44.530;18.620;2022-12-07T12:54:24;9.40;99.90
36416;DHT22;22447;44.530;18.620;2022-12-07T12:59:38;9.40;99.90
36416;DHT22;22447;44.530;18.620;2022-12-07T13:02:29;9.30;99.90
36416;DHT22;22447;44.530;18.620;2022-12-07T13:04:57;9.30;99.90
36416;DHT22;22447;44.530;18.620;2022-12-07T13:15:47;9.30;99.90
36416;DHT22;22447;44.530;18.620;2022-12-07T13:26:14;9.40;99.90
36416;DHT22;22447;44.530;18.620;2022-12-07T13:28:43;9.40;99.90
36416;DHT22;22447;44.530;18.620;2022-12-07T13:33:47;9.40;99.90
36416;DHT22;22447;44.530;18.620;2022-12-07T13:36:22;9.30;99.90
36416;DHT22;22447;44.530;18.620;2022-12-07T13:38:59;9.30;99.90
36416;DHT22;22447;44.530;18.620;2022-12-07T13:41:27;9.30;99.90
36416;DHT22;22447;44.530;18.620;2022-12-07T13:44:02;9.20;99.90
36416;DHT22;22447;44.530;18.620;2022-12-07T13:51:51;9.20;99.90
36416;DHT22;22447;44.530;18.620;2022-12-07T13:54:19;9.20;99.90
36416;DHT22;22447;44.530;18.620;2022-12-07T13:56:49;9.10;99.90
36416;DHT22;22447;44.530;18.620;2022-12-07T13:59:23;9.00;99.90
36416;DHT22;22447;44.530;18.620;2022-12-07T14:01:51;9.00;99.90
36416;DHT22;22447;44.530;18.620;2022-12-07T14:04:35;9.10;99.90
36416;DHT22;22447;44.530;18.620;2022-12-07T14:07:22;9.10;99.90
36416;DHT22;22447;44.530;18.620;2022-12-07T14:10:04;9.10;99.90
36416;DHT22;22447;44.530;18.620;2022-12-07T14:12:32;9.00;99.90
36416;DHT22;22447;44.530;18.620;2022-12-07T14:14:59;8.90;99.90
36416;DHT22;22447;44.530;18.620;2022-12-07T14:17:27;8.90;99.90
36416;DHT22;22447;44.530;18.620;2022-12-07T14:19:58;9.00;99.90
36416;DHT22;22447;44.530;18.620;2022-12-07T14:22:38;9.00;99.90
36416;DHT22;22447;44.530;18.620;2022-12-07T14:27:47;8.70;99.90
36416;DHT22;22447;44.530;18.620;2022-12-07T14:30:17;8.60;99.90
36416;DHT22;22447;44.530;18.620;2022-12-07T14:32:44;8.60;99.90
36416;DHT22;22447;44.530;18.620;2022-12-07T14:35:16;8.60;99.90
36416;DHT22;22447;44.530;18.620;2022-12-07T14:37:44;8.60;99.90
36416;DHT22;22447;44.530;18.620;2022-12-07T14:40:36;8.60;99.90
36416;DHT22;22447;44.530;18.620;2022-12-07T14:43:06;8.60;99.90
36416;DHT22;22447;44.530;18.620;2022-12-07T14:45:34;8.60;99.90
36416;DHT22;22447;44.530;18.620;2022-12-07T14:48:00;8.60;99.90
36416;DHT22;22447;44.530;18.620;2022-12-07T14:50:26;8.60;99.90
36416;DHT22;22447;44.530;18.620;2022-12-07T14:52:58;8.60;99.90
36416;DHT22;22447;44.530;18.620;2022-12-07T14:55:28;8.60;99.90
36416;DHT22;22447;44.530;18.620;2022-12-07T14:57:54;8.50;99.90
36416;DHT22;22447;44.530;18.620;2022-12-07T15:00:23;8.50;99.90
36416;DHT22;22447;44.530;18.620;2022-12-07T15:02:50;8.50;99.90
36416;DHT22;22447;44.530;18.620;2022-12-07T15:05:16;8.50;99.90
36416;DHT22;22447;44.530;18.620;2022-12-07T15:07:43;8.40;99.90
36416;DHT22;22447;44.530;18.620;2022-12-07T15:10:21;8.40;99.90
36416;DHT22;22447;44.530;18.620;2022-12-07T15:12:47;8.40;99.90
36416;DHT22;22447;44.530;18.620;2022-12-07T15:15:13;8.40;99.90
36416;DHT22;22447;44.530;18.620;2022-12-07T15:17:40;8.40;99.90
36416;DHT22;22447;44.530;18.620;2022-12-07T15:20:12;8.40;99.90
36416;DHT22;22447;44.530;18.620;2022-12-07T15:22:38;8.40;99.90
36416;DHT22;22447;44.530;18.620;2022-12-07T15:25:04;8.40;99.90
36416;DHT22;22447;44.530;18.620;2022-12-07T15:27:31;8.40;99.90
36416;DHT22;22447;44.530;18.620;2022-12-07T15:29:57;8.40;99.90
36416;DHT22;22447;44.530;18.620;2022-12-07T15:32:23;8.30;99.90
36416;DHT22;22447;44.530;18.620;2022-12-07T15:34:49;8.30;99.90
36416;DHT22;22447;44.530;18.620;2022-12-07T15:37:15;8.30;99.90
36416;DHT22;22447;44.530;18.620;2022-12-07T15:39:41;8.30;99.90
36416;DHT22;22447;44.530;18.620;2022-12-07T15:42:07;8.30;99.90
36416;DHT22;22447;44.530;18.620;2022-12-07T15:44:33;8.30;99.90
36416;DHT22;22447;44.530;18.620;2022-12-07T15:47:18;8.20;99.90
36416;DHT22;22447;44.530;18.620;2022-12-07T15:49:44;8.20;99.90
36416;DHT22;22447;44.530;18.620;2022-12-07T15:52:09;8.20;99.90
36416;DHT22;22447;44.530;18.620;2022-12-07T15:54:35;8.20;99.90
36416;DHT22;22447;44.530;18.620;2022-12-07T15:57:01;8.10;99.90
36416;DHT22;22447;44.530;18.620;2022-12-07T15:59:28;8.10;99.90
36416;DHT22;22447;44.530;18.620;2022-12-07T16:01:54;8.10;99.90
36416;DHT22;22447;44.530;18.620;2022-12-07T16:04:20;8.00;99.90
36416;DHT22;22447;44.530;18.620;2022-12-07T16:06:46;8.00;99.90
36416;DHT22;22447;44.530;18.620;2022-12-07T16:09:12;8.00;99.90
36416;DHT22;22447;44.530;18.620;2022-12-07T16:11:38;7.90;99.90
36416;DHT22;22447;44.530;18.620;2022-12-07T16:14:04;7.90;99.90
36416;DHT22;22447;44.530;18.620;2022-12-07T16:16:30;7.90;99.90
36416;DHT22;22447;44.530;18.620;2022-12-07T16:18:57;8.00;99.90
36416;DHT22;22447;44.530;18.620;2022-12-07T16:21:23;7.90;99.90
36416;DHT22;22447;44.530;18.620;2022-12-07T16:23:49;7.90;99.90
36416;DHT22;22447;44.530;18.620;2022-12-07T16:26:17;7.90;99.90
36416;DHT22;22447;44.530;18.620;2022-12-07T16:28:43;7.90;99.90
36416;DHT22;22447;44.530;18.620;2022-12-07T16:31:14;8.00;99.90
36416;DHT22;22447;44.530;18.620;2022-12-07T16:33:41;8.00;99.90
36416;DHT22;22447;44.530;18.620;2022-12-07T16:36:10;8.00;99.90
36416;DHT22;22447;44.530;18.620;2022-12-07T16:38:36;7.80;99.90
36416;DHT22;22447;44.530;18.620;2022-12-07T16:41:04;7.90;99.90
36416;DHT22;22447;44.530;18.620;2022-12-07T16:43:30;7.90;99.90
36416;DHT22;22447;44.530;18.620;2022-12-07T16:45:55;7.80;99.90
36416;DHT22;22447;44.530;18.620;2022-12-07T16:48:21;7.70;99.90
36416;DHT22;22447;44.530;18.620;2022-12-07T16:50:47;7.70;99.90
36416;DHT22;22447;44.530;18.620;2022-12-07T16:53:14;7.70;99.90
36416;DHT22;22447;44.530;18.620;2022-12-07T16:55:43;7.80;99.90
36416;DHT22;22447;44.530;18.620;2022-12-07T16:58:11;7.80;99.90
36416;DHT22;22447;44.530;18.620;2022-12-07T17:00:41;7.90;99.90
36416;DHT22;22447;44.530;18.620;2022-12-07T17:03:09;7.90;99.90
36416;DHT22;22447;44.530;18.620;2022-12-07T17:05:40;7.80;99.90
36416;DHT22;22447;44.530;18.620;2022-12-07T17:08:07;7.80;99.90
36416;DHT22;22447;44.530;18.620;2022-12-07T17:10:38;7.80;99.90
36416;DHT22;22447;44.530;18.620;2022-12-07T17:13:05;7.80;99.90
36416;DHT22;22447;44.530;18.620;2022-12-07T17:15:58;7.70;99.90
36416;DHT22;22447;44.530;18.620;2022-12-07T17:18:25;7.70;99.90
36416;DHT22;22447;44.530;18.620;2022-12-07T17:20:51;7.70;99.90
36416;DHT22;22447;44.530;18.620;2022-12-07T17:23:17;7.80;99.90
36416;DHT22;22447;44.530;18.620;2022-12-07T17:25:43;7.80;99.90
36416;DHT22;22447;44.530;18.620;2022-12-07T17:28:09;7.80;99.90
36416;DHT22;22447;44.530;18.620;2022-12-07T17:30:35;7.80;99.90
36416;DHT22;22447;44.530;18.620;2022-12-07T17:33:01;7.70;99.90
36416;DHT22;22447;44.530;18.620;2022-12-07T17:35:27;7.80;99.90
36416;DHT22;22447;44.530;18.620;2022-12-07T17:37:53;7.70;99.90
36416;DHT22;22447;44.530;18.620;2022-12-07T17:40:19;7.80;99.90
36416;DHT22;22447;44.530;18.620;2022-12-07T17:42:44;7.80;99.90
36416;DHT22;22447;44.530;18.620;2022-12-07T17:45:14;7.80;99.90
36416;DHT22;22447;44.530;18.620;2022-12-07T17:47:40;7.80;99.90
36416;DHT22;22447;44.530;18.620;2022-12-07T17:50:07;7.80;99.90
36416;DHT22;22447;44.530;18.620;2022-12-07T17:52:36;7.70;99.90
36416;DHT22;22447;44.530;18.620;2022-12-07T17:55:21;7.70;99.90
36416;DHT22;22447;44.530;18.620;2022-12-07T17:57:47;7.70;99.90
36416;DHT22;22447;44.530;18.620;2022-12-07T18:00:14;7.70;99.90
36416;DHT22;22447;44.530;18.620;2022-12-07T18:02:40;7.60;99.90
36416;DHT22;22447;44.530;18.620;2022-12-07T18:05:06;7.60;99.90